Krasnodar, Russia
Current Conditions -  °F | °C
As of 3:30 AM on Saturday 25 Oct 2014 (Local Time) from URKK Reporting Station
Light Rain Light Rain  
Wind Chill: 23°   Ceiling: 1200
Heat Index: 32°   Visibility: 6mi
Dew Point: 30°   Wind: 11mph
Humidity: 93%   Direction: 60°ENE
Pressure: 30.21"   Gusts: 18mph
Location:  45.03°N, 38.98°E
Report Text: URKK 250030Z 06005G08MPS 9000 -RA OVC012 00/M01 Q1023 NOSIG RMKQFE764 SC060
Loading
Personal Weather Stations






























Interactive Weather Map
Tropical Storm Tracking
New forecast layout! Learn more

10-Day Weather Forecast

Advertisements
Track Severe Weather on mobile